createdAt,value
2018-07-12T00:01:35.776Z,100.00
2018-07-12T00:04:09.239Z,100.00
2018-07-12T00:06:42.588Z,100.00
2018-07-12T00:09:16.072Z,100.00
2018-07-12T00:11:49.533Z,100.00
2018-07-12T00:14:22.882Z,100.00
2018-07-12T00:16:56.296Z,100.00
2018-07-12T00:19:29.800Z,100.00
2018-07-12T00:22:03.204Z,100.00
2018-07-12T00:24:36.656Z,100.00
2018-07-12T00:27:10.098Z,100.00
2018-07-12T00:29:43.562Z,100.00
2018-07-12T00:32:16.960Z,100.00
2018-07-12T00:34:50.430Z,100.00
2018-07-12T00:37:23.984Z,100.00
2018-07-12T00:39:57.377Z,100.00
2018-07-12T00:42:30.904Z,100.00
2018-07-12T00:45:04.446Z,100.00
2018-07-12T00:47:37.959Z,100.00
2018-07-12T00:50:11.421Z,100.00
2018-07-12T00:52:44.965Z,100.00
2018-07-12T00:55:18.346Z,100.00
2018-07-12T00:57:51.797Z,100.00
2018-07-12T01:00:25.363Z,100.00
2018-07-12T01:02:58.757Z,100.00
2018-07-12T01:05:32.312Z,100.00
2018-07-12T01:08:05.737Z,100.00
2018-07-12T01:10:39.165Z,100.00
2018-07-12T01:13:12.641Z,100.00
2018-07-12T01:15:46.164Z,100.00
2018-07-12T01:18:19.655Z,100.00
2018-07-12T01:20:53.079Z,100.00
2018-07-12T01:23:26.401Z,100.00
2018-07-12T01:25:59.919Z,100.00
2018-07-12T01:28:33.663Z,100.00
2018-07-12T01:31:07.271Z,100.00
2018-07-12T01:33:40.641Z,100.00
2018-07-12T01:36:14.225Z,100.00
2018-07-12T01:38:47.630Z,100.00
2018-07-12T01:41:21.520Z,100.00
2018-07-12T01:43:55.218Z,100.00
2018-07-12T01:46:28.804Z,100.00
2018-07-12T01:49:02.360Z,100.00
2018-07-12T01:51:35.835Z,100.00
2018-07-12T01:54:09.460Z,100.00
2018-07-12T01:56:42.919Z,100.00
2018-07-12T01:59:16.320Z,100.00
2018-07-12T02:01:49.692Z,100.00
2018-07-12T02:04:23.319Z,100.00
2018-07-12T02:06:56.724Z,100.00
2018-07-12T02:09:30.244Z,100.00
2018-07-12T02:12:03.877Z,100.00
2018-07-12T02:14:37.272Z,100.00
2018-07-12T02:17:10.843Z,100.00
2018-07-12T02:19:44.460Z,100.00
2018-07-12T02:22:17.973Z,100.00
2018-07-12T02:24:51.464Z,100.00
2018-07-12T02:27:24.993Z,100.00
2018-07-12T02:29:58.527Z,100.00
2018-07-12T02:32:31.973Z,100.00
2018-07-12T02:35:05.502Z,100.00
2018-07-12T02:37:38.908Z,100.00
2018-07-12T02:40:12.845Z,100.00
2018-07-12T02:42:46.100Z,100.00
2018-07-12T02:45:19.561Z,100.00
2018-07-12T02:47:52.798Z,100.00
2018-07-12T02:50:26.192Z,100.00
2018-07-12T02:52:59.500Z,100.00
2018-07-12T02:55:32.793Z,100.00
2018-07-12T02:58:06.007Z,100.00
2018-07-12T03:00:39.228Z,100.00
2018-07-12T03:03:12.479Z,100.00
2018-07-12T03:05:45.724Z,100.00
2018-07-12T03:08:19.024Z,100.00
2018-07-12T03:10:52.448Z,100.00
2018-07-12T03:13:25.735Z,100.00
2018-07-12T03:15:58.978Z,100.00
2018-07-12T03:18:32.271Z,100.00
2018-07-12T03:21:05.531Z,100.00
2018-07-12T03:23:38.835Z,100.00
2018-07-12T03:26:12.187Z,100.00
2018-07-12T03:28:45.347Z,100.00
2018-07-12T03:31:18.739Z,100.00
2018-07-12T03:33:52.104Z,100.00
2018-07-12T03:36:25.552Z,100.00
2018-07-12T03:38:58.779Z,100.00
2018-07-12T03:41:31.984Z,100.00
2018-07-12T03:44:05.239Z,100.00
2018-07-12T03:46:38.635Z,100.00
2018-07-12T03:49:11.925Z,100.00
2018-07-12T03:51:45.156Z,100.00
2018-07-12T03:54:18.387Z,100.00
2018-07-12T03:56:51.644Z,100.00
2018-07-12T03:59:24.898Z,100.00
2018-07-12T04:01:58.146Z,100.00
2018-07-12T04:04:31.375Z,100.00
2018-07-12T04:07:04.675Z,100.00
2018-07-12T04:09:37.879Z,100.00
2018-07-12T04:12:11.264Z,100.00
2018-07-12T04:14:44.451Z,100.00
2018-07-12T04:17:27.162Z,100.00
2018-07-12T04:20:01.596Z,100.00
2018-07-12T04:22:35.880Z,100.00
2018-07-12T04:25:09.247Z,100.00
2018-07-12T04:27:42.503Z,100.00
2018-07-12T04:30:15.720Z,100.00
2018-07-12T04:32:48.976Z,100.00
2018-07-12T04:35:22.200Z,100.00
2018-07-12T04:37:55.547Z,100.00
2018-07-12T04:40:28.831Z,100.00
2018-07-12T04:43:02.083Z,100.00
2018-07-12T04:45:35.364Z,100.00
2018-07-12T04:48:08.571Z,100.00
2018-07-12T04:50:41.827Z,100.00
2018-07-12T04:53:15.051Z,100.00
2018-07-12T04:55:48.332Z,100.00
2018-07-12T04:58:21.652Z,100.00
2018-07-12T05:00:55.363Z,100.00
2018-07-12T05:03:28.935Z,100.00
2018-07-12T05:06:02.129Z,100.00
2018-07-12T05:08:35.399Z,100.00
2018-07-12T05:11:08.674Z,100.00
2018-07-12T05:13:41.996Z,100.00
2018-07-12T05:16:15.336Z,100.00
2018-07-12T05:18:48.574Z,100.00
2018-07-12T05:21:21.853Z,100.00
2018-07-12T05:23:55.231Z,100.00
2018-07-12T05:26:28.538Z,100.00
2018-07-12T05:29:01.815Z,100.00
2018-07-12T05:31:35.227Z,100.00
2018-07-12T05:34:08.470Z,100.00
2018-07-12T05:36:59.892Z,99.99
2018-07-12T05:39:34.192Z,99.87
2018-07-12T05:42:08.631Z,99.04
2018-07-12T05:44:42.909Z,98.40
2018-07-12T05:47:17.251Z,97.41
2018-07-12T05:49:51.648Z,97.62
2018-07-12T05:52:26.079Z,98.31
2018-07-12T05:55:00.351Z,97.58
2018-07-12T05:57:34.808Z,96.35
2018-07-12T06:00:09.127Z,95.84
2018-07-12T06:02:43.375Z,96.02
2018-07-12T06:05:17.624Z,96.98
2018-07-12T06:07:52.131Z,97.19
2018-07-12T06:10:26.579Z,96.99
2018-07-12T06:13:01.027Z,97.40
2018-07-12T06:15:35.275Z,97.78
2018-07-12T06:18:09.575Z,98.17
2018-07-12T06:20:43.971Z,99.38
2018-07-12T06:23:18.383Z,98.45
2018-07-12T06:25:52.807Z,98.06
2018-07-12T06:28:27.091Z,97.78
2018-07-12T06:31:01.515Z,98.02
2018-07-12T06:33:35.743Z,96.83
2018-07-12T06:36:10.196Z,96.70
2018-07-12T06:38:44.868Z,97.26
2018-07-12T06:41:19.171Z,96.62
2018-07-12T06:43:53.439Z,96.29
2018-07-12T06:46:27.783Z,95.50
2018-07-12T06:49:02.352Z,95.16
2018-07-12T06:51:36.613Z,94.36
2018-07-12T06:54:11.079Z,94.65
2018-07-12T06:56:45.387Z,94.78
2018-07-12T06:59:19.931Z,95.43
2018-07-12T07:01:54.303Z,94.96
2018-07-12T07:04:28.731Z,94.06
2018-07-12T07:07:03.169Z,90.57
2018-07-12T07:09:37.574Z,86.36
2018-07-12T07:12:12.016Z,82.33
2018-07-12T07:14:46.453Z,84.94
2018-07-12T07:17:20.767Z,84.55
2018-07-12T07:19:55.423Z,84.37
2018-07-12T07:22:30.624Z,84.86
2018-07-12T07:25:05.114Z,86.46
2018-07-12T07:27:39.547Z,83.41
2018-07-12T07:30:14.016Z,78.62
2018-07-12T07:32:48.307Z,78.62
2018-07-12T07:35:22.725Z,79.98
2018-07-12T07:37:57.095Z,79.77
2018-07-12T07:40:31.550Z,80.03
2018-07-12T07:43:06.201Z,80.19
2018-07-12T07:45:40.656Z,78.28
2018-07-12T07:48:15.358Z,72.76
2018-07-12T07:50:49.763Z,71.41
2018-07-12T07:53:24.076Z,72.46
2018-07-12T07:55:58.721Z,75.30
2018-07-12T07:58:33.129Z,75.35
2018-07-12T08:01:07.540Z,77.51
2018-07-12T08:03:41.948Z,77.65
2018-07-12T08:06:16.291Z,80.00
2018-07-12T08:08:50.715Z,79.55
2018-07-12T08:11:24.931Z,80.55
2018-07-12T08:13:59.335Z,79.95
2018-07-12T08:16:33.842Z,79.11
2018-07-12T08:19:08.212Z,79.00
2018-07-12T08:21:42.572Z,77.14
2018-07-12T08:24:16.950Z,74.51
2018-07-12T08:26:51.386Z,71.61
2018-07-12T08:29:25.824Z,69.62
2018-07-12T08:32:00.628Z,70.93
2018-07-12T08:34:35.002Z,72.23
2018-07-12T08:37:09.423Z,72.09
2018-07-12T08:39:43.759Z,68.15
2018-07-12T08:42:18.174Z,68.59
2018-07-12T08:44:52.539Z,66.77
2018-07-12T08:47:27.012Z,62.33
2018-07-12T08:50:01.330Z,59.83
2018-07-12T08:52:35.980Z,58.32
2018-07-12T08:55:10.357Z,58.95
2018-07-12T08:57:45.456Z,61.05
2018-07-12T09:00:19.734Z,61.58
2018-07-12T09:02:54.094Z,63.88
2018-07-12T09:05:28.492Z,66.45
2018-07-12T09:08:02.947Z,58.10
2018-07-12T09:10:37.248Z,52.10
2018-07-12T09:13:11.671Z,49.01
2018-07-12T09:15:46.073Z,51.32
2018-07-12T09:18:20.371Z,55.54
2018-07-12T09:20:54.784Z,47.83
2018-07-12T09:23:29.207Z,46.55
2018-07-12T09:26:03.607Z,51.29
2018-07-12T09:28:38.010Z,53.56
2018-07-12T09:31:12.391Z,49.45
2018-07-12T09:33:46.739Z,45.31
2018-07-12T09:36:21.130Z,43.33
2018-07-12T09:38:55.456Z,45.07
2018-07-12T09:41:29.731Z,49.15
2018-07-12T09:44:04.091Z,45.13
2018-07-12T09:46:38.463Z,42.37
2018-07-12T09:49:13.128Z,40.08
2018-07-12T09:51:47.347Z,37.04
2018-07-12T09:54:21.782Z,39.29
2018-07-12T09:57:07.723Z,41.97
2018-07-12T09:59:42.180Z,46.96
2018-07-12T10:02:22.023Z,42.68
2018-07-12T10:04:56.285Z,35.61
2018-07-12T10:07:30.694Z,40.61
2018-07-12T10:10:05.188Z,45.35
2018-07-12T10:12:44.941Z,47.41
2018-07-12T10:15:24.891Z,43.55
2018-07-12T10:18:04.725Z,39.23
2018-07-12T10:20:39.266Z,38.83
2018-07-12T10:23:13.592Z,38.91
2018-07-12T10:25:48.016Z,36.85
2018-07-12T10:28:22.420Z,41.40
2018-07-12T10:30:56.869Z,43.89
2018-07-12T10:33:31.123Z,42.14
2018-07-12T10:36:05.583Z,42.29
2018-07-12T10:38:40.005Z,44.01
2018-07-12T10:41:14.441Z,45.33
2018-07-12T10:43:48.795Z,41.48
2018-07-12T10:46:23.164Z,40.78
2018-07-12T10:48:57.476Z,35.77
2018-07-12T10:51:31.739Z,34.79
2018-07-12T10:54:06.183Z,33.58
2018-07-12T10:56:40.594Z,38.43
2018-07-12T10:59:15.052Z,42.45
2018-07-12T11:01:49.462Z,44.46
2018-07-12T11:04:23.826Z,42.71
2018-07-12T11:06:58.223Z,39.99
2018-07-12T11:09:32.643Z,39.95
2018-07-12T11:12:07.079Z,38.36
2018-07-12T11:14:41.540Z,34.86
2018-07-12T11:17:15.959Z,36.25
2018-07-12T11:19:50.387Z,33.23
2018-07-12T11:22:24.848Z,37.30
2018-07-12T11:24:59.303Z,38.57
2018-07-12T11:27:33.670Z,35.81
2018-07-12T11:30:08.052Z,37.58
2018-07-12T11:32:42.424Z,41.33
2018-07-12T11:35:16.827Z,43.40
2018-07-12T11:37:51.262Z,43.10
2018-07-12T11:40:25.632Z,43.50
2018-07-12T11:43:00.131Z,42.94
2018-07-12T11:45:34.531Z,39.87
2018-07-12T11:48:08.920Z,38.40
2018-07-12T11:50:43.204Z,39.25
2018-07-12T11:53:17.687Z,39.49
2018-07-12T11:55:53.155Z,41.96
2018-07-12T11:58:27.599Z,45.21
2018-07-12T12:01:02.241Z,48.00
2018-07-12T12:03:36.687Z,48.90
2018-07-12T12:06:11.123Z,46.23
2018-07-12T12:08:45.547Z,44.64
2018-07-12T12:11:19.984Z,44.87
2018-07-12T12:13:54.315Z,44.72
2018-07-12T12:16:28.727Z,47.55
2018-07-12T12:19:03.139Z,48.22
2018-07-12T12:21:37.455Z,50.90
2018-07-12T12:24:11.751Z,49.83
2018-07-12T12:26:46.051Z,49.38
2018-07-12T12:29:20.313Z,48.18
2018-07-12T12:31:54.667Z,47.75
2018-07-12T12:34:28.943Z,47.43
2018-07-12T12:37:03.656Z,45.83
2018-07-12T12:39:37.942Z,46.68
2018-07-12T12:42:12.395Z,48.26
2018-07-12T12:44:46.859Z,48.60
2018-07-12T12:47:21.151Z,48.38
2018-07-12T12:49:55.464Z,48.90
2018-07-12T12:52:29.983Z,50.20
2018-07-12T12:55:04.652Z,50.28
2018-07-12T12:57:39.096Z,51.89
2018-07-12T13:00:13.588Z,54.60
2018-07-12T13:02:47.979Z,53.96
2018-07-12T13:05:22.247Z,52.70
2018-07-12T13:07:56.653Z,50.77
2018-07-12T13:10:30.903Z,50.65
2018-07-12T13:13:05.419Z,50.27
2018-07-12T13:15:39.676Z,50.97
2018-07-12T13:18:14.060Z,47.16
2018-07-12T13:20:48.444Z,47.11
2018-07-12T13:23:22.746Z,45.88
2018-07-12T13:25:57.175Z,46.02
2018-07-12T13:28:31.551Z,45.70
2018-07-12T13:31:06.155Z,45.86
2018-07-12T13:33:40.406Z,45.32
2018-07-12T13:36:14.791Z,45.33
2018-07-12T13:38:49.149Z,46.40
2018-07-12T13:41:23.477Z,44.90
2018-07-12T13:44:20.372Z,46.04
2018-07-12T13:46:55.407Z,47.42
2018-07-12T13:49:29.744Z,47.00
2018-07-12T13:52:04.212Z,46.92
2018-07-12T13:54:38.432Z,47.13
2018-07-12T13:57:12.819Z,48.49
2018-07-12T13:59:47.262Z,47.20
2018-07-12T14:02:21.620Z,46.73
2018-07-12T14:04:55.919Z,46.44
2018-07-12T14:07:30.308Z,45.35
2018-07-12T14:10:04.855Z,43.17
2018-07-12T14:12:39.047Z,41.30
2018-07-12T14:15:13.451Z,42.49
2018-07-12T14:17:47.815Z,41.95
2018-07-12T14:20:22.203Z,41.78
2018-07-12T14:22:56.611Z,40.86
2018-07-12T14:25:30.863Z,41.36
2018-07-12T14:28:05.275Z,41.23
2018-07-12T14:30:39.670Z,36.45
2018-07-12T14:33:14.027Z,33.59
2018-07-12T14:35:48.348Z,33.07
2018-07-12T14:38:22.727Z,30.79
2018-07-12T14:40:57.111Z,32.75
2018-07-12T14:43:31.478Z,31.31
2018-07-12T14:46:05.891Z,31.52
2018-07-12T14:48:40.139Z,29.67
2018-07-12T14:51:14.577Z,27.72
2018-07-12T14:53:48.975Z,27.52
2018-07-12T14:56:23.411Z,26.80
2018-07-12T14:58:57.839Z,27.78
2018-07-12T15:01:32.198Z,28.97
2018-07-12T15:04:06.716Z,29.18
2018-07-12T15:06:40.944Z,28.30
2018-07-12T15:09:15.527Z,29.86
2018-07-12T15:11:50.110Z,31.54
2018-07-12T15:14:24.423Z,32.18
2018-07-12T15:16:58.802Z,32.55
2018-07-12T15:19:33.062Z,32.66
2018-07-12T15:22:07.525Z,31.27
2018-07-12T15:24:41.872Z,31.96
2018-07-12T15:27:16.211Z,33.25
2018-07-12T15:29:50.656Z,32.44
2018-07-12T15:32:25.032Z,34.02
2018-07-12T15:34:59.402Z,34.87
2018-07-12T15:37:33.819Z,35.70
2018-07-12T15:40:08.210Z,37.13
2018-07-12T15:42:42.615Z,37.40
2018-07-12T15:45:17.018Z,37.48
2018-07-12T15:47:51.412Z,37.54
2018-07-12T15:50:26.791Z,38.29
2018-07-12T15:53:01.063Z,37.89
2018-07-12T15:55:35.243Z,37.60
2018-07-12T15:58:09.519Z,37.96
2018-07-12T16:00:43.943Z,38.53
2018-07-12T16:03:18.339Z,37.82
2018-07-12T16:05:52.923Z,41.72
2018-07-12T16:08:28.334Z,37.71
2018-07-12T16:11:02.851Z,38.90
2018-07-12T16:13:37.269Z,38.68
2018-07-12T16:16:11.704Z,37.97
2018-07-12T16:18:45.933Z,39.79
2018-07-12T16:21:20.229Z,39.52
2018-07-12T16:23:54.588Z,39.39
2018-07-12T16:26:28.887Z,39.41
2018-07-12T16:29:03.484Z,38.68
2018-07-12T16:31:37.804Z,38.43
2018-07-12T16:34:12.332Z,39.47
2018-07-12T16:36:46.698Z,38.82
2018-07-12T16:39:21.135Z,39.93
2018-07-12T16:41:55.667Z,40.91
2018-07-12T16:44:30.018Z,39.78
2018-07-12T16:47:04.591Z,39.68
2018-07-12T16:49:39.117Z,40.06
2018-07-12T16:52:13.419Z,39.93
2018-07-12T16:54:47.880Z,39.72
2018-07-12T16:57:22.203Z,39.88
2018-07-12T16:59:56.570Z,40.98
2018-07-12T17:02:30.861Z,39.92
2018-07-12T17:05:05.301Z,40.16
2018-07-12T17:07:39.727Z,40.27
2018-07-12T17:10:14.259Z,39.44
2018-07-12T17:12:48.706Z,40.60
2018-07-12T17:15:23.171Z,40.24
2018-07-12T17:17:57.557Z,40.12
2018-07-12T17:20:31.991Z,40.89
2018-07-12T17:23:06.326Z,41.01
2018-07-12T17:25:40.749Z,42.07
2018-07-12T17:28:15.044Z,41.98
2018-07-12T17:30:49.462Z,42.15
2018-07-12T17:33:23.894Z,42.57
2018-07-12T17:35:58.255Z,43.40
2018-07-12T17:38:32.552Z,43.62
2018-07-12T17:41:07.057Z,43.39
2018-07-12T17:43:41.263Z,43.32
2018-07-12T17:46:15.582Z,43.26
2018-07-12T17:48:49.995Z,42.61
2018-07-12T17:51:24.352Z,42.15
2018-07-12T17:53:58.750Z,42.45
2018-07-12T17:56:33.163Z,42.26
2018-07-12T17:59:07.451Z,42.95
2018-07-12T18:01:41.938Z,42.81
2018-07-12T18:04:16.338Z,42.76
2018-07-12T18:06:50.718Z,43.92
2018-07-12T18:09:25.079Z,43.60
2018-07-12T18:11:59.520Z,44.57
2018-07-12T18:14:34.064Z,45.26
2018-07-12T18:17:08.353Z,46.09
2018-07-12T18:19:42.643Z,46.30
2018-07-12T18:22:17.177Z,47.43
2018-07-12T18:24:51.286Z,47.73
2018-07-12T18:27:25.743Z,48.67
2018-07-12T18:30:00.240Z,48.19
2018-07-12T18:32:34.648Z,49.07
2018-07-12T18:35:08.935Z,49.61
2018-07-12T18:37:43.319Z,48.99
2018-07-12T18:40:17.627Z,49.10
2018-07-12T18:42:52.067Z,49.34
2018-07-12T18:45:26.455Z,48.78
2018-07-12T18:48:00.871Z,48.64
2018-07-12T18:50:35.210Z,49.19
2018-07-12T18:53:09.637Z,48.50
2018-07-12T18:55:44.147Z,48.86
2018-07-12T18:58:18.544Z,48.88
2018-07-12T19:00:53.056Z,48.62
2018-07-12T19:03:27.463Z,48.75
2018-07-12T19:06:01.912Z,49.08
2018-07-12T19:08:36.912Z,48.93
2018-07-12T19:11:11.312Z,49.33
2018-07-12T19:13:46.942Z,48.75
2018-07-12T19:16:21.501Z,49.06
2018-07-12T19:18:56.056Z,48.57
2018-07-12T19:21:30.760Z,47.88
2018-07-12T19:24:05.336Z,47.96
2018-07-12T19:26:39.916Z,48.44
2018-07-12T19:29:14.500Z,48.68
2018-07-12T19:31:48.863Z,48.42
2018-07-12T19:34:23.527Z,48.64
2018-07-12T19:36:58.060Z,49.66
2018-07-12T19:39:32.611Z,49.88
2018-07-12T19:42:06.996Z,49.38
2018-07-12T19:44:41.493Z,49.80
2018-07-12T19:47:16.254Z,51.16
2018-07-12T19:49:50.749Z,51.69
2018-07-12T19:52:25.387Z,51.98
2018-07-12T19:54:59.651Z,52.59
2018-07-12T19:57:34.003Z,53.07
2018-07-12T20:00:08.644Z,52.57
2018-07-12T20:02:42.984Z,53.51
2018-07-12T20:05:17.408Z,53.82
2018-07-12T20:07:51.901Z,54.15
2018-07-12T20:10:26.567Z,54.30
2018-07-12T20:13:01.117Z,54.24
2018-07-12T20:15:36.045Z,55.06
2018-07-12T20:18:10.530Z,54.60
2018-07-12T20:20:45.139Z,54.84
2018-07-12T20:23:19.705Z,55.44
2018-07-12T20:25:54.374Z,55.93
2018-07-12T20:28:28.804Z,56.74
2018-07-12T20:31:03.162Z,56.00
2018-07-12T20:33:37.661Z,56.82
2018-07-12T20:36:12.233Z,57.57
2018-07-12T20:38:46.714Z,57.00
2018-07-12T20:41:21.154Z,57.02
2018-07-12T20:43:55.613Z,57.33
2018-07-12T20:46:29.970Z,57.73
2018-07-12T20:49:04.363Z,58.32
2018-07-12T20:51:38.808Z,58.46
2018-07-12T20:54:13.360Z,60.26
2018-07-12T20:56:47.765Z,60.48
2018-07-12T20:59:22.255Z,60.51
2018-07-12T21:01:56.688Z,61.58
2018-07-12T21:04:31.192Z,62.52
2018-07-12T21:07:05.857Z,62.04
2018-07-12T21:09:40.426Z,61.63
2018-07-12T21:12:15.009Z,61.71
2018-07-12T21:14:49.961Z,61.62
2018-07-12T21:17:24.448Z,63.10
2018-07-12T21:19:59.117Z,64.52
2018-07-12T21:22:33.616Z,65.28
2018-07-12T21:25:08.137Z,64.63
2018-07-12T21:27:42.628Z,65.94
2018-07-12T21:30:17.143Z,66.95
2018-07-12T21:32:51.852Z,67.16
2018-07-12T21:35:26.378Z,66.87
2018-07-12T21:38:00.943Z,67.74
2018-07-12T21:40:35.419Z,68.00
2018-07-12T21:43:09.740Z,68.62
2018-07-12T21:45:44.388Z,69.66
2018-07-12T21:48:19.105Z,68.49
2018-07-12T21:50:53.653Z,68.77
2018-07-12T21:53:28.239Z,70.45
2018-07-12T21:56:02.743Z,70.84
2018-07-12T21:58:37.328Z,71.06
2018-07-12T22:01:11.616Z,70.79
2018-07-12T22:03:46.224Z,70.71
2018-07-12T22:07:00.584Z,71.14
2018-07-12T22:09:35.190Z,70.65
2018-07-12T22:12:09.793Z,70.89
2018-07-12T22:14:44.537Z,70.82
2018-07-12T22:17:19.068Z,71.50
2018-07-12T22:19:53.612Z,72.24
2018-07-12T22:22:28.177Z,71.84
2018-07-12T22:25:02.741Z,72.82
2018-07-12T22:27:37.261Z,72.24
2018-07-12T22:30:11.815Z,73.41
2018-07-12T22:32:46.344Z,74.53
2018-07-12T22:35:20.860Z,73.94
2018-07-12T22:37:55.707Z,74.29
2018-07-12T22:40:30.359Z,75.33
2018-07-12T22:43:04.784Z,75.97
2018-07-12T22:45:39.438Z,76.64
2018-07-12T22:48:14.107Z,76.63
2018-07-12T22:50:48.518Z,77.30
2018-07-12T22:53:22.988Z,78.04
2018-07-12T22:55:57.796Z,78.28
2018-07-12T22:58:32.273Z,78.53
2018-07-12T23:01:06.729Z,78.94
2018-07-12T23:03:41.394Z,78.42
2018-07-12T23:06:16.856Z,78.00
2018-07-12T23:08:51.407Z,77.32
2018-07-12T23:11:26.025Z,77.44
2018-07-12T23:14:00.516Z,77.54
2018-07-12T23:16:34.956Z,77.48
2018-07-12T23:19:09.598Z,78.58
2018-07-12T23:21:44.183Z,78.37
2018-07-12T23:24:18.589Z,78.75
2018-07-12T23:26:53.469Z,78.53
2018-07-12T23:29:28.152Z,78.41
2018-07-12T23:32:02.821Z,78.89
2018-07-12T23:34:37.396Z,78.78
2018-07-12T23:37:12.019Z,79.22
2018-07-12T23:39:46.437Z,79.72
2018-07-12T23:42:20.932Z,80.76
2018-07-12T23:44:55.797Z,80.08
2018-07-12T23:47:30.412Z,80.40
2018-07-12T23:50:04.819Z,80.12
2018-07-12T23:52:39.500Z,79.24
2018-07-12T23:55:14.205Z,79.41
2018-07-12T23:57:48.724Z,80.15
